Time;durP1;ratioP1;P1;durP2;ratioP2;P2;SDS_P1;SDS_P2;PMS_P1;PMS_P2;Temp;Humidity;BMP_temperature;BMP_pressure;BME280_temperature;BME280_humidity;BME280_pressure;Samples;Min_cycle;Max_cycle;Signal;HPM_P1;HPM_P2
2023/04/10 00:00:05;;;;;;;0.10;0.10;;;11.40;55.80;;;;;;5023663;28;20026;-75
2023/04/10 00:02:31;;;;;;;0.00;0.00;;;11.40;55.90;;;;;;5023051;28;20029;-73
2023/04/10 00:04:57;;;;;;;0.08;0.08;;;11.30;56.20;;;;;;5022593;28;20064;-74
2023/04/10 00:07:23;;;;;;;0.32;0.20;;;11.20;56.30;;;;;;5023673;28;20112;-73
2023/04/10 00:09:49;;;;;;;0.10;0.10;;;11.20;56.50;;;;;;5022915;28;20171;-74
2023/04/10 00:12:14;;;;;;;0.10;0.10;;;11.00;56.50;;;;;;5022457;28;20026;-74
2023/04/10 00:14:40;;;;;;;0.10;0.10;;;11.10;56.70;;;;;;5023069;28;20025;-73
2023/04/10 00:17:06;;;;;;;0.00;0.00;;;11.00;56.90;;;;;;5023020;28;20596;-74
2023/04/10 00:19:32;;;;;;;0.10;0.10;;;11.00;57.00;;;;;;5023432;28;20049;-74
2023/04/10 00:21:58;;;;;;;0.00;0.00;;;11.00;57.10;;;;;;5023397;28;20024;-74
2023/04/10 00:24:24;;;;;;;0.10;0.10;;;11.00;57.40;;;;;;5022994;28;20021;-74
2023/04/10 00:26:49;;;;;;;0.10;0.10;;;10.90;57.50;;;;;;5022270;28;20017;-73
2023/04/10 00:29:15;;;;;;;0.10;0.10;;;10.90;57.70;;;;;;5026089;28;20030;-73
2023/04/10 00:31:41;;;;;;;0.10;0.10;;;10.90;57.90;;;;;;5023006;28;20556;-74
2023/04/10 00:34:07;;;;;;;0.10;0.10;;;10.80;58.20;;;;;;5023059;28;20037;-74
2023/04/10 00:36:33;;;;;;;0.10;0.10;;;10.80;58.40;;;;;;5022862;28;20040;-74
2023/04/10 00:38:59;;;;;;;0.20;0.20;;;10.80;58.70;;;;;;5023432;28;20116;-73
2023/04/10 00:41:25;;;;;;;7.68;0.75;;;10.70;58.90;;;;;;5029341;28;20515;-74
2023/04/10 00:43:55;;;;;;;1.70;0.35;;;10.70;59.00;;;;;;5022288;28;20025;-74
2023/04/10 00:46:22;;;;;;;0.10;0.10;;;10.70;59.20;;;;;;5022456;28;20030;-74
2023/04/10 00:48:49;;;;;;;0.55;0.52;;;10.60;59.30;;;;;;5022460;28;20025;-73
2023/04/10 00:51:15;;;;;;;0.10;0.10;;;10.50;59.60;;;;;;5020573;28;20166;-73
2023/04/10 00:53:41;;;;;;;0.20;0.20;;;10.50;59.90;;;;;;5022511;28;20584;-73
2023/04/10 00:56:07;;;;;;;0.38;0.38;;;10.50;60.10;;;;;;5023892;28;20060;-73
2023/04/10 00:58:32;;;;;;;0.83;0.37;;;10.40;60.60;;;;;;5022173;28;20111;-73
2023/04/10 01:00:58;;;;;;;0.00;0.00;;;10.30;60.80;;;;;;5022409;28;20021;-74
2023/04/10 01:03:24;;;;;;;0.00;0.00;;;10.20;61.10;;;;;;5019605;28;20386;-75
2023/04/10 01:05:49;;;;;;;0.17;0.17;;;10.20;61.10;;;;;;5024363;28;20507;-74
2023/04/10 01:08:36;;;;;;;0.10;0.10;;;10.20;61.00;;;;;;5026363;28;20033;-74
2023/04/10 01:11:08;;;;;;;;;;;10.30;61.40;;;;;;5026497;28;20556;-73
2023/04/10 01:13:42;;;;;;;0.10;0.10;;;10.20;61.30;;;;;;5025830;28;19909;-75
2023/04/10 01:16:15;;;;;;;0.10;0.10;;;10.20;61.40;;;;;;5026251;28;20026;-73
2023/04/10 01:18:49;;;;;;;0.00;0.00;;;10.10;61.80;;;;;;5026179;28;20029;-73
2023/04/10 01:21:16;;;;;;;0.10;0.10;;;10.10;62.00;;;;;;5025895;28;20123;-74
2023/04/10 01:24:01;;;;;;;0.10;0.10;;;10.00;62.20;;;;;;5026360;28;20035;-73
2023/04/10 01:27:10;;;;;;;0.10;0.10;;;10.00;62.50;;;;;;5025722;28;20227;-74
2023/04/10 01:29:41;;;;;;;0.20;0.20;;;9.90;62.70;;;;;;5022940;28;20033;-73
2023/04/10 01:32:13;;;;;;;0.10;0.10;;;9.90;63.00;;;;;;5024293;28;20401;-73
2023/04/10 01:34:48;;;;;;;0.00;0.00;;;9.80;63.20;;;;;;5026534;28;20690;-74
2023/04/10 01:37:25;;;;;;;0.10;0.10;;;9.90;63.20;;;;;;5025566;28;20021;-74
2023/04/10 01:39:58;;;;;;;0.10;0.10;;;9.90;63.10;;;;;;5032627;28;20048;-74
2023/04/10 01:42:27;;;;;;;0.20;0.20;;;9.90;63.20;;;;;;5025505;28;20041;-74
2023/04/10 01:44:53;;;;;;;0.75;0.63;;;9.90;63.20;;;;;;5025293;28;20029;-73
2023/04/10 01:47:19;;;;;;;0.10;0.10;;;9.90;63.10;;;;;;5025254;28;20876;-73
2023/04/10 01:49:47;;;;;;;0.10;0.10;;;9.90;63.30;;;;;;5025872;28;20037;-74
2023/04/10 01:52:14;;;;;;;0.08;0.08;;;9.80;63.30;;;;;;5024915;28;20484;-74
2023/04/10 01:54:42;;;;;;;0.00;0.00;;;9.80;63.40;;;;;;5025255;28;20063;-74
2023/04/10 01:57:09;;;;;;;0.00;0.00;;;9.80;63.30;;;;;;5024884;28;20033;-74
2023/04/10 01:59:36;;;;;;;0.10;0.10;;;9.80;63.50;;;;;;5023576;28;20028;-74
2023/04/10 02:02:03;;;;;;;0.20;0.20;;;9.80;63.60;;;;;;5025426;28;20029;-74
2023/04/10 02:04:29;;;;;;;0.10;0.10;;;9.70;63.70;;;;;;5024681;28;20049;-74
2023/04/10 02:07:16;;;;;;;0.10;0.10;;;9.70;63.90;;;;;;5025007;28;20064;-74
2023/04/10 02:10:03;;;;;;;0.43;0.30;;;9.80;64.00;;;;;;5025223;28;20026;-73
2023/04/10 02:12:29;;;;;;;;;;;9.70;64.10;;;;;;5024788;28;20721;-74
2023/04/10 02:15:00;;;;;;;0.10;0.10;;;9.60;64.60;;;;;;5024309;28;20407;-73
2023/04/10 02:17:28;;;;;;;0.10;0.10;;;9.60;64.70;;;;;;5025065;28;20032;-74
2023/04/10 02:19:56;;;;;;;0.10;0.10;;;9.60;64.70;;;;;;5025057;28;20022;-74
2023/04/10 02:22:24;;;;;;;0.00;0.00;;;9.60;64.90;;;;;;5024726;28;20029;-74
2023/04/10 02:24:50;;;;;;;0.20;0.20;;;9.60;65.10;;;;;;5024819;28;20484;-74
2023/04/10 02:27:29;;;;;;;0.10;0.10;;;9.60;65.20;;;;;;5024700;28;20025;-73
2023/04/10 02:29:55;;;;;;;0.20;0.20;;;9.50;65.60;;;;;;5026759;28;20021;-73
2023/04/10 02:32:21;;;;;;;0.40;0.40;;;9.50;65.90;;;;;;5024474;28;20563;-73
2023/04/10 02:34:47;;;;;;;0.07;0.07;;;9.50;65.80;;;;;;5024969;28;20102;-73
2023/04/10 02:37:13;;;;;;;1.10;0.43;;;9.50;66.00;;;;;;5024366;28;20295;-73
2023/04/10 02:39:38;;;;;;;0.10;0.10;;;9.50;66.30;;;;;;5030899;28;20036;-75
2023/04/10 02:42:04;;;;;;;0.15;0.15;;;9.50;66.20;;;;;;5025766;28;20088;-74
2023/04/10 02:44:30;;;;;;;0.60;0.45;;;9.50;66.20;;;;;;5025064;28;20060;-73
2023/04/10 02:46:55;;;;;;;0.10;0.10;;;9.40;66.90;;;;;;5024593;28;20093;-73
2023/04/10 02:49:21;;;;;;;0.10;0.10;;;9.40;66.80;;;;;;5016986;28;20030;-74
2023/04/10 02:51:47;;;;;;;0.00;0.00;;;9.40;66.70;;;;;;5024227;28;20026;-73
2023/04/10 02:54:12;;;;;;;0.10;0.10;;;9.40;66.90;;;;;;5024902;28;20032;-74
2023/04/10 02:56:38;;;;;;;0.10;0.10;;;9.40;66.70;;;;;;5024033;28;20030;-74
2023/04/10 02:59:03;;;;;;;0.10;0.10;;;9.40;66.70;;;;;;5024345;28;20025;-73
2023/04/10 03:01:29;;;;;;;0.10;0.10;;;9.40;66.70;;;;;;5055523;28;20036;-74
2023/04/10 03:03:56;;;;;;;0.25;0.25;;;9.40;66.70;;;;;;5024177;28;20505;-74
2023/04/10 03:06:25;;;;;;;0.20;0.20;;;9.40;66.80;;;;;;5024171;28;20029;-73
2023/04/10 03:08:51;;;;;;;0.00;0.00;;;9.40;66.70;;;;;;5023122;28;20030;-73
2023/04/10 03:11:17;;;;;;;0.30;0.30;;;9.40;66.90;;;;;;5023510;28;20022;-73
2023/04/10 03:13:43;;;;;;;0.43;0.43;;;9.30;67.60;;;;;;5023969;28;20029;-74
2023/04/10 03:16:08;;;;;;;5.78;1.25;;;9.20;68.50;;;;;;5023888;28;20033;-74
2023/04/10 03:18:34;;;;;;;0.00;0.00;;;9.20;67.80;;;;;;5024033;28;20025;-74
2023/04/10 03:21:01;;;;;;;0.20;0.20;;;9.10;67.90;;;;;;5023407;28;20127;-74
2023/04/10 03:23:27;;;;;;;0.08;0.08;;;9.10;68.30;;;;;;5023861;28;20136;-73
2023/04/10 03:25:53;;;;;;;0.10;0.10;;;9.00;68.60;;;;;;5022695;28;20071;-73
2023/04/10 03:28:19;;;;;;;0.10;0.10;;;9.00;68.80;;;;;;5025424;28;20076;-74
2023/04/10 03:30:45;;;;;;;0.00;0.00;;;8.90;68.90;;;;;;5025886;28;20029;-73
2023/04/10 03:33:11;;;;;;;0.10;0.10;;;8.90;69.20;;;;;;5023405;28;20075;-74
2023/04/10 03:35:37;;;;;;;0.20;0.20;;;8.90;69.10;;;;;;5023540;28;20049;-73
2023/04/10 03:38:02;;;;;;;0.30;0.30;;;8.90;69.50;;;;;;5023852;28;20083;-73
2023/04/10 03:40:28;;;;;;;0.30;0.30;;;8.90;69.70;;;;;;5030594;28;20017;-73
2023/04/10 03:42:54;;;;;;;0.10;0.10;;;8.90;69.60;;;;;;5023123;28;20100;-74
2023/04/10 03:45:19;;;;;;;0.10;0.10;;;8.80;69.70;;;;;;5022638;28;20041;-73
2023/04/10 03:47:45;;;;;;;0.00;0.00;;;8.80;70.50;;;;;;5023641;28;20034;-73
2023/04/10 03:50:11;;;;;;;0.00;0.00;;;8.70;70.20;;;;;;5023032;28;20029;-74
2023/04/10 03:52:37;;;;;;;0.08;0.08;;;8.80;70.30;;;;;;5023519;28;20034;-73
2023/04/10 03:55:03;;;;;;;0.10;0.10;;;8.70;70.80;;;;;;5054832;28;20405;-73
2023/04/10 03:57:29;;;;;;;0.25;0.25;;;8.70;71.00;;;;;;5022882;28;20025;-75
2023/04/10 03:59:55;;;;;;;0.10;0.10;;;8.70;70.60;;;;;;5023229;28;20021;-73
2023/04/10 04:02:20;;;;;;;0.30;0.30;;;8.70;71.50;;;;;;5022950;28;20040;-73
2023/04/10 04:04:47;;;;;;;0.10;0.10;;;8.60;71.30;;;;;;5023029;28;20147;-73
2023/04/10 04:07:12;;;;;;;0.10;0.10;;;8.60;71.80;;;;;;5023095;28;20030;-73
2023/04/10 04:09:40;;;;;;;0.90;0.68;;;8.60;71.50;;;;;;5023371;28;20831;-73
2023/04/10 04:12:06;;;;;;;;;;;8.50;71.80;;;;;;5023222;28;20017;-74
2023/04/10 04:14:31;;;;;;;0.10;0.10;;;8.50;71.60;;;;;;5022901;28;19908;-74
2023/04/10 04:16:57;;;;;;;0.10;0.10;;;8.50;72.00;;;;;;5023083;28;20034;-73
2023/04/10 04:19:23;;;;;;;0.03;0.03;;;8.50;71.90;;;;;;5023386;28;20095;-74
2023/04/10 04:21:49;;;;;;;0.00;0.00;;;8.50;72.00;;;;;;5023677;28;20561;-74
2023/04/10 04:24:14;;;;;;;0.00;0.00;;;8.50;71.70;;;;;;5023374;28;20030;-74
2023/04/10 04:26:40;;;;;;;0.40;0.22;;;8.50;71.50;;;;;;5023120;28;20034;-73
2023/04/10 04:29:06;;;;;;;0.03;0.03;;;8.50;71.90;;;;;;5025013;28;20030;-73
2023/04/10 04:31:31;;;;;;;0.10;0.10;;;8.50;72.00;;;;;;5023205;28;20083;-74
2023/04/10 04:34:00;;;;;;;0.38;0.20;;;8.50;71.90;;;;;;5023117;28;20105;-73
2023/04/10 04:36:27;;;;;;;0.00;0.00;;;8.40;72.10;;;;;;5023086;28;20079;-73
2023/04/10 04:38:53;;;;;;;0.00;0.00;;;8.50;72.00;;;;;;5026533;28;20022;-73
2023/04/10 04:41:19;;;;;;;0.00;0.00;;;8.50;72.10;;;;;;5033607;28;20021;-74
2023/04/10 04:43:46;;;;;;;0.20;0.17;;;8.50;72.00;;;;;;5026846;28;20026;-74
2023/04/10 04:46:12;;;;;;;0.10;0.10;;;8.50;71.80;;;;;;5026729;28;20075;-74
2023/04/10 04:48:38;;;;;;;0.07;0.07;;;8.40;72.80;;;;;;5026711;28;20055;-73
2023/04/10 04:51:06;;;;;;;0.32;0.32;;;8.30;73.30;;;;;;5026856;28;20033;-73
2023/04/10 04:53:32;;;;;;;0.10;0.10;;;8.40;72.80;;;;;;5026819;28;20030;-74
2023/04/10 04:55:57;;;;;;;0.32;0.32;;;8.50;72.20;;;;;;5027464;28;20041;-73
2023/04/10 04:58:23;;;;;;;0.00;0.00;;;8.50;72.10;;;;;;5025879;28;20032;-73
2023/04/10 05:00:51;;;;;;;0.00;0.00;;;8.50;72.20;;;;;;5026324;28;20500;-74
2023/04/10 05:03:16;;;;;;;0.00;0.00;;;8.40;72.60;;;;;;5025867;28;20057;-73
2023/04/10 05:05:42;;;;;;;0.10;0.10;;;8.40;72.40;;;;;;5026088;28;20032;-73
2023/04/10 05:08:08;;;;;;;0.00;0.00;;;8.40;72.60;;;;;;5026190;28;20033;-73
2023/04/10 05:10:34;;;;;;;0.00;0.00;;;8.50;72.50;;;;;;5025365;28;20033;-73
2023/04/10 05:12:59;;;;;;;0.00;0.00;;;8.50;72.60;;;;;;5025720;28;20860;-74
2023/04/10 05:15:25;;;;;;;0.00;0.00;;;8.40;72.80;;;;;;5025982;28;20393;-74
2023/04/10 05:17:51;;;;;;;0.00;0.00;;;8.30;73.30;;;;;;5026017;28;20209;-74
2023/04/10 05:20:17;;;;;;;0.10;0.10;;;8.30;73.20;;;;;;5026007;28;20025;-74
2023/04/10 05:22:43;;;;;;;0.47;0.47;;;8.30;73.50;;;;;;5025536;28;20044;-73
2023/04/10 05:25:09;;;;;;;0.03;0.03;;;8.30;73.70;;;;;;5025550;28;20100;-75
2023/04/10 05:27:35;;;;;;;0.00;0.00;;;8.30;73.80;;;;;;5025313;28;20113;-74
2023/04/10 05:30:01;;;;;;;0.05;0.05;;;8.20;74.30;;;;;;5030728;28;20025;-73
2023/04/10 05:32:26;;;;;;;0.10;0.10;;;8.20;74.00;;;;;;5025854;28;20026;-74
2023/04/10 05:34:52;;;;;;;0.15;0.15;;;8.30;73.70;;;;;;5025914;28;20029;-73
2023/04/10 05:37:17;;;;;;;0.20;0.20;;;8.30;73.60;;;;;;5025561;28;20029;-73
2023/04/10 05:39:43;;;;;;;0.10;0.10;;;8.40;73.20;;;;;;5031699;28;20480;-73
2023/04/10 05:42:09;;;;;;;0.00;0.00;;;8.40;73.40;;;;;;5025263;28;20033;-74
2023/04/10 05:44:34;;;;;;;0.22;0.20;;;8.30;74.70;;;;;;5025639;28;20030;-73
2023/04/10 05:47:00;;;;;;;0.00;0.00;;;8.30;74.50;;;;;;5025470;28;20041;-73
2023/04/10 05:49:26;;;;;;;0.30;0.30;;;8.40;73.90;;;;;;5024394;28;20033;-73
2023/04/10 05:51:52;;;;;;;0.10;0.10;;;8.50;73.70;;;;;;5024852;28;20125;-73
2023/04/10 05:54:18;;;;;;;0.20;0.20;;;8.50;73.40;;;;;;5025816;28;20713;-73
2023/04/10 05:56:43;;;;;;;0.00;0.00;;;8.60;73.30;;;;;;5024984;28;20268;-74
2023/04/10 05:59:11;;;;;;;0.00;0.00;;;8.70;73.10;;;;;;5025889;28;20482;-74
2023/04/10 06:01:36;;;;;;;0.10;0.10;;;8.70;72.90;;;;;;5025744;28;20030;-73
2023/04/10 06:04:02;;;;;;;0.00;0.00;;;8.70;73.20;;;;;;5025425;28;20061;-73
2023/04/10 06:06:28;;;;;;;0.00;0.00;;;8.80;73.00;;;;;;5025146;28;20022;-73
2023/04/10 06:08:54;;;;;;;0.00;0.00;;;8.80;73.80;;;;;;5025929;28;20037;-75
2023/04/10 06:11:20;;;;;;;0.03;0.03;;;8.80;73.10;;;;;;5024654;28;20481;-73
2023/04/10 06:13:46;;;;;;;0.10;0.10;;;8.90;74.30;;;;;;5025392;28;20076;-74
2023/04/10 06:16:13;;;;;;;0.00;0.00;;;8.90;74.10;;;;;;5029095;28;20505;-74
2023/04/10 06:18:40;;;;;;;0.10;0.10;;;9.00;73.90;;;;;;5022453;28;20068;-74
2023/04/10 06:21:06;;;;;;;0.10;0.10;;;9.20;73.60;;;;;;5025276;28;20057;-74
2023/04/10 06:23:31;;;;;;;0.00;0.00;;;9.30;73.70;;;;;;5025089;28;20080;-74
2023/04/10 06:25:57;;;;;;;0.10;0.10;;;9.40;73.50;;;;;;5022488;28;20583;-73
2023/04/10 06:28:23;;;;;;;0.10;0.10;;;9.40;74.60;;;;;;5023013;28;20172;-74
2023/04/10 06:30:49;;;;;;;0.73;0.73;;;9.40;74.50;;;;;;5026252;28;20033;-74
2023/04/10 06:33:15;;;;;;;0.10;0.10;;;9.40;74.10;;;;;;5024981;28;20032;-73
2023/04/10 06:35:41;;;;;;;0.20;0.20;;;9.40;74.20;;;;;;5024575;28;20033;-74
2023/04/10 06:38:07;;;;;;;0.10;0.10;;;9.50;74.00;;;;;;5024821;28;20527;-73
2023/04/10 06:40:33;;;;;;;1.20;0.75;;;9.70;73.60;;;;;;5031325;28;20986;-73
2023/04/10 06:42:59;;;;;;;0.10;0.10;;;9.70;74.40;;;;;;5023879;28;20033;-73
2023/04/10 06:45:25;;;;;;;0.20;0.20;;;9.70;73.50;;;;;;5024717;28;20036;-74
2023/04/10 06:47:51;;;;;;;0.77;0.77;;;9.90;73.40;;;;;;5025035;28;20034;-75
2023/04/10 06:50:17;;;;;;;0.22;0.13;;;10.10;72.10;;;;;;5024223;28;20275;-73
2023/04/10 06:52:44;;;;;;;0.10;0.10;;;10.30;74.40;;;;;;5024212;28;20037;-74
2023/04/10 06:55:11;;;;;;;0.00;0.00;;;10.40;74.80;;;;;;5024440;28;20037;-74
2023/04/10 06:57:37;;;;;;;0.00;0.00;;;10.50;73.20;;;;;;5017542;28;20036;-73
2023/04/10 07:00:03;;;;;;;0.20;0.20;;;10.60;72.90;;;;;;5023275;28;20489;-74
2023/04/10 07:02:29;;;;;;;0.17;0.17;;;10.50;72.20;;;;;;5024165;28;20025;-73
2023/04/10 07:04:55;;;;;;;0.10;0.10;;;10.50;71.50;;;;;;5023227;28;20322;-74
2023/04/10 07:07:21;;;;;;;0.15;0.15;;;10.50;71.50;;;;;;5024428;28;20148;-75
2023/04/10 07:09:47;;;;;;;0.10;0.10;;;10.60;70.00;;;;;;5023995;28;20216;-73
2023/04/10 07:12:13;;;;;;;0.03;0.03;;;10.70;73.70;;;;;;5023640;28;20104;-73
2023/04/10 07:14:39;;;;;;;0.20;0.20;;;10.70;78.40;;;;;;5024154;28;20026;-74
2023/04/10 07:17:04;;;;;;;0.20;0.20;;;10.80;76.90;;;;;;5023884;28;20037;-74
2023/04/10 07:19:30;;;;;;;0.30;0.30;;;10.90;76.50;;;;;;5024597;28;20025;-74
2023/04/10 07:21:56;;;;;;;0.10;0.10;;;10.80;74.70;;;;;;5022998;28;20030;-73
2023/04/10 07:24:22;;;;;;;1.35;0.75;;;10.90;74.20;;;;;;5024335;28;20029;-73
2023/04/10 07:26:48;;;;;;;0.15;0.15;;;11.10;72.30;;;;;;5023529;28;20750;-73
2023/04/10 07:29:14;;;;;;;0.17;0.17;;;11.30;74.70;;;;;;5026170;28;20025;-73
2023/04/10 07:31:40;;;;;;;0.38;0.38;;;11.50;73.90;;;;;;5023923;28;20017;-74
2023/04/10 07:34:06;;;;;;;3.30;0.38;;;12.00;71.40;;;;;;5023679;28;20581;-74
2023/04/10 07:36:32;;;;;;;0.10;0.10;;;12.50;70.50;;;;;;5023649;28;20032;-74
2023/04/10 07:38:58;;;;;;;0.10;0.10;;;13.00;69.30;;;;;;5023456;28;20033;-73
2023/04/10 07:41:24;;;;;;;0.10;0.10;;;13.00;68.40;;;;;;5029958;28;20056;-75
2023/04/10 07:43:50;;;;;;;0.30;0.30;;;13.20;68.20;;;;;;5023343;28;20029;-73
2023/04/10 07:46:16;;;;;;;0.10;0.10;;;13.30;68.70;;;;;;5023368;28;20096;-73
2023/04/10 07:48:42;;;;;;;0.20;0.20;;;13.90;66.40;;;;;;5023279;28;20040;-74
2023/04/10 07:51:08;;;;;;;0.10;0.10;;;14.40;63.80;;;;;;5054411;28;20037;-74
2023/04/10 07:53:37;;;;;;;0.88;0.85;;;15.00;63.90;;;;;;5023142;28;20028;-74
2023/04/10 07:56:04;;;;;;;0.10;0.10;;;15.10;62.00;;;;;;5023280;28;20548;-73
2023/04/10 07:58:30;;;;;;;0.10;0.10;;;15.40;62.30;;;;;;5023126;28;20117;-74
2023/04/10 08:00:56;;;;;;;0.22;0.22;;;15.00;61.40;;;;;;5022935;28;20566;-75
2023/04/10 08:03:22;;;;;;;0.10;0.10;;;14.70;61.90;;;;;;5023007;28;20046;-74
2023/04/10 08:05:48;;;;;;;0.10;0.10;;;14.50;63.10;;;;;;5023119;28;20045;-73
2023/04/10 08:08:15;;;;;;;0.63;0.63;;;14.50;65.60;;;;;;5022859;28;20114;-74
2023/04/10 08:10:40;;;;;;;0.98;0.55;;;14.50;67.60;;;;;;5022846;28;20257;-74
2023/04/10 08:13:06;;;;;;;0.30;0.30;;;14.50;67.60;;;;;;5022238;28;20080;-75
2023/04/10 08:15:32;;;;;;;0.10;0.10;;;14.40;68.90;;;;;;5023214;28;20060;-75
2023/04/10 08:17:57;;;;;;;0.10;0.10;;;14.20;68.30;;;;;;5023582;28;20227;-73
2023/04/10 08:20:23;;;;;;;0.10;0.10;;;14.10;68.20;;;;;;5023288;28;20087;-74
2023/04/10 08:22:49;;;;;;;0.10;0.10;;;14.40;68.20;;;;;;5023478;28;20029;-75
2023/04/10 08:25:14;;;;;;;0.10;0.10;;;15.00;67.90;;;;;;5023254;28;20774;-74
2023/04/10 08:27:40;;;;;;;0.00;0.00;;;15.20;67.70;;;;;;5022859;28;20466;-73
2023/04/10 08:30:06;;;;;;;0.10;0.10;;;14.80;65.30;;;;;;5026427;28;20029;-73
2023/04/10 08:32:32;;;;;;;1.58;0.52;;;14.40;66.00;;;;;;5023065;28;20033;-74
2023/04/10 08:34:58;;;;;;;0.07;0.07;;;14.00;67.30;;;;;;5023367;28;20037;-74
2023/04/10 08:37:25;;;;;;;0.38;0.28;;;14.10;67.00;;;;;;5022902;28;20033;-73
2023/04/10 08:39:51;;;;;;;0.10;0.10;;;14.40;66.70;;;;;;5029757;28;20032;-74
2023/04/10 08:42:17;;;;;;;0.20;0.20;;;14.90;65.50;;;;;;5023277;28;20400;-74
2023/04/10 08:44:43;;;;;;;0.33;0.33;;;16.10;63.80;;;;;;5022789;28;20034;-74
2023/04/10 08:47:09;;;;;;;0.10;0.10;;;16.70;63.00;;;;;;5023101;28;20013;-74
2023/04/10 08:49:52;;;;;;;0.00;0.00;;;16.70;60.70;;;;;;5020272;28;20105;-75
2023/04/10 08:52:24;;;;;;;0.00;0.00;;;16.80;59.90;;;;;;5020384;28;20492;-74
2023/04/10 08:54:56;;;;;;;0.43;0.43;;;16.70;59.80;;;;;;5022818;28;20029;-73
2023/04/10 08:57:23;;;;;;;0.22;0.22;;;18.20;60.40;;;;;;5020385;28;20037;-74
2023/04/10 08:59:50;;;;;;;;;;;19.40;55.10;;;;;;5023113;28;20033;-75
2023/04/10 09:02:16;;;;;;;0.22;0.22;;;20.10;54.10;;;;;;5019663;28;19948;-74
2023/04/10 09:04:50;;;;;;;0.00;0.00;;;19.80;53.00;;;;;;5022189;28;20053;-74
2023/04/10 09:07:17;;;;;;;0.00;0.00;;;19.70;54.70;;;;;;5019836;28;20140;-74
2023/04/10 09:09:43;;;;;;;0.03;0.03;;;18.90;55.40;;;;;;5022391;28;20098;-74
2023/04/10 09:12:09;;;;;;;2.08;1.00;;;19.00;57.30;;;;;;5021852;28;20029;-75
2023/04/10 09:14:35;;;;;;;0.20;0.20;;;19.30;56.40;;;;;;5022296;28;20599;-74
2023/04/10 09:17:19;;;;;;;0.32;0.32;;;19.40;62.40;;;;;;5022505;28;20038;-75
2023/04/10 09:19:51;;;;;;;0.00;0.00;;;19.90;57.20;;;;;;5022384;28;20443;-75
2023/04/10 09:22:17;;;;;;;0.10;0.10;;;20.80;54.50;;;;;;5019853;28;20659;-75
2023/04/10 09:24:45;;;;;;;0.10;0.10;;;21.10;54.50;;;;;;5023379;28;20068;-74
2023/04/10 09:27:36;;;;;;;0.00;0.00;;;20.80;54.90;;;;;;5025384;28;20496;-74
2023/04/10 09:30:03;;;;;;;0.20;0.20;;;20.00;56.70;;;;;;5030166;28;20426;-75
2023/04/10 09:32:42;;;;;;;0.08;0.08;;;19.60;57.10;;;;;;5025630;28;20064;-75
2023/04/10 09:35:10;;;;;;;0.10;0.10;;;19.90;55.30;;;;;;5025830;28;20025;-75
2023/04/10 09:37:36;;;;;;;0.45;0.45;;;20.20;54.50;;;;;;5025584;28;20032;-74
2023/04/10 09:40:03;;;;;;;0.28;0.28;;;20.20;53.70;;;;;;5032346;28;20041;-74
2023/04/10 09:42:31;;;;;;;;;;;20.20;52.30;;;;;;5026076;28;20813;-76
2023/04/10 09:44:57;;;;;;;0.00;0.00;;;21.70;53.60;;;;;;5025513;28;20526;-75
2023/04/10 09:47:23;;;;;;;0.20;0.20;;;23.70;52.10;;;;;;5025470;28;20025;-74
2023/04/10 09:49:54;;;;;;;2.40;0.27;;;24.90;50.30;;;;;;5024546;28;20601;-75
2023/04/10 09:52:28;;;;;;;0.00;0.00;;;23.00;52.10;;;;;;5023016;28;20037;-75
2023/04/10 09:55:00;;;;;;;0.00;0.00;;;21.00;53.50;;;;;;5057099;28;20464;-75
2023/04/10 09:57:28;;;;;;;0.05;0.05;;;20.90;53.90;;;;;;5025415;28;20108;-74
2023/04/10 09:59:58;;;;;;;0.52;0.52;;;23.20;51.00;;;;;;5025150;28;20021;-74
2023/04/10 10:02:27;;;;;;;0.05;0.05;;;24.10;49.90;;;;;;5023940;28;20037;-75
2023/04/10 10:04:53;;;;;;;0.15;0.15;;;22.20;50.70;;;;;;5024950;28;20072;-74
2023/04/10 10:07:21;;;;;;;0.27;0.27;;;24.00;49.70;;;;;;5024876;28;20494;-74
2023/04/10 10:09:49;;;;;;;0.10;0.10;;;24.20;48.50;;;;;;5025030;28;20122;-75
2023/04/10 10:12:33;;;;;;;0.38;0.38;;;24.00;48.70;;;;;;5026135;28;20109;-75
2023/04/10 10:15:01;;;;;;;0.20;0.20;;;23.60;49.70;;;;;;5025084;28;20112;-74
2023/04/10 10:17:33;;;;;;;0.22;0.22;;;22.30;51.30;;;;;;5056284;28;20868;-74
2023/04/10 10:20:09;;;;;;;0.10;0.10;;;21.90;51.00;;;;;;5024942;28;20108;-75
2023/04/10 10:22:36;;;;;;;0.00;0.00;;;20.80;51.50;;;;;;5024840;28;20025;-74
2023/04/10 10:25:03;;;;;;;0.00;0.00;;;20.00;53.20;;;;;;5024130;28;20022;-75
2023/04/10 10:27:37;;;;;;;0.00;0.00;;;20.20;56.60;;;;;;5024283;28;20026;-74
2023/04/10 10:30:05;;;;;;;16.77;0.43;;;20.60;57.90;;;;;;5024511;28;20041;-75
2023/04/10 10:32:33;;;;;;;0.00;0.00;;;20.70;57.30;;;;;;5024683;28;20029;-74
2023/04/10 10:35:01;;;;;;;0.95;0.55;;;21.10;55.10;;;;;;5024373;28;20041;-75
2023/04/10 10:37:29;;;;;;;0.00;0.00;;;20.10;55.70;;;;;;5024257;28;20022;-74
2023/04/10 10:39:57;;;;;;;0.10;0.10;;;20.10;55.30;;;;;;5031125;28;20107;-76
2023/04/10 10:43:03;;;;;;;4.82;0.35;;;20.00;57.00;;;;;;5024423;28;20025;-74
2023/04/10 10:46:21;;;;;;;0.00;0.00;;;20.40;57.60;;;;;;5023950;28;20044;-75
2023/04/10 10:48:57;;;;;;;0.55;0.22;;;20.70;57.20;;;;;;5015085;28;20073;-74
2023/04/10 10:51:22;;;;;;;0.20;0.20;;;21.10;56.10;;;;;;5024136;28;20029;-75
2023/04/10 10:53:48;;;;;;;0.00;0.00;;;21.40;55.10;;;;;;5021815;28;20532;-75
2023/04/10 10:56:21;;;;;;;0.00;0.00;;;21.20;55.50;;;;;;5023734;28;20034;-74
2023/04/10 10:58:51;;;;;;;0.00;0.00;;;21.30;55.60;;;;;;5023965;28;20022;-74
2023/04/10 11:01:19;;;;;;;0.30;0.30;;;21.30;51.50;;;;;;5023940;28;20120;-74
2023/04/10 11:03:45;;;;;;;0.10;0.10;;;21.20;54.50;;;;;;5023456;28;20049;-75
2023/04/10 11:06:13;;;;;;;0.20;0.20;;;20.50;56.00;;;;;;5023777;28;20037;-75
2023/04/10 11:08:43;;;;;;;0.15;0.15;;;20.20;56.50;;;;;;5023833;28;20041;-76
2023/04/10 11:11:19;;;;;;;0.20;0.20;;;20.00;58.90;;;;;;5025113;28;20022;-76
2023/04/10 11:13:56;;;;;;;0.30;0.30;;;20.10;57.70;;;;;;5022059;28;20057;-75
2023/04/10 11:16:35;;;;;;;0.00;0.00;;;19.60;60.00;;;;;;5023665;28;20108;-74
2023/04/10 11:19:02;;;;;;;0.25;0.25;;;19.30;59.10;;;;;;5020295;28;20036;-75
2023/04/10 11:21:27;;;;;;;;;;;19.30;60.80;;;;;;5023995;28;20060;-74
2023/04/10 11:23:53;;;;;;;0.00;0.00;;;19.50;57.40;;;;;;5023400;28;20055;-75
2023/04/10 11:26:34;;;;;;;0.10;0.10;;;19.10;60.20;;;;;;5023423;28;20079;-75
2023/04/10 11:29:04;;;;;;;0.20;0.20;;;18.80;62.10;;;;;;5025193;28;20021;-75
2023/04/10 11:31:31;;;;;;;0.47;0.47;;;18.50;60.00;;;;;;5023775;28;20108;-75
2023/04/10 11:33:57;;;;;;;0.13;0.13;;;18.20;62.90;;;;;;5023970;28;20109;-75
2023/04/10 11:36:23;;;;;;;0.00;0.00;;;17.70;64.10;;;;;;5023717;28;20033;-75
2023/04/10 11:38:59;;;;;;;0.20;0.20;;;17.60;63.90;;;;;;5023631;28;20033;-75
2023/04/10 11:41:32;;;;;;;0.30;0.30;;;17.50;63.40;;;;;;5017468;28;20026;-75
2023/04/10 11:44:02;;;;;;;0.40;0.32;;;17.30;63.30;;;;;;5021618;28;20033;-75
2023/04/10 11:46:28;;;;;;;0.20;0.20;;;17.30;63.50;;;;;;5023088;28;20107;-74
2023/04/10 11:48:57;;;;;;;0.10;0.10;;;17.40;63.50;;;;;;5023292;28;20064;-75
2023/04/10 11:51:23;;;;;;;0.00;0.00;;;17.30;64.80;;;;;;5054798;28;20124;-74
2023/04/10 11:53:49;;;;;;;0.00;0.00;;;17.40;63.60;;;;;;5022759;28;20033;-74
2023/04/10 11:56:20;;;;;;;0.00;0.00;;;17.50;64.30;;;;;;5022472;28;20029;-75
2023/04/10 11:58:48;;;;;;;0.30;0.30;;;17.80;63.70;;;;;;5022879;28;20030;-74
2023/04/10 12:01:14;;;;;;;0.45;0.45;;;18.00;63.60;;;;;;5023008;28;20021;-75
2023/04/10 12:03:42;;;;;;;1.17;0.93;;;18.00;63.80;;;;;;5022659;28;20053;-75
2023/04/10 12:06:13;;;;;;;0.20;0.20;;;18.00;65.70;;;;;;5023156;28;20049;-74
2023/04/10 12:08:46;;;;;;;4.05;1.42;;;18.00;65.50;;;;;;5026787;28;20049;-75
2023/04/10 12:11:12;;;;;;;0.25;0.25;;;18.40;63.30;;;;;;5022701;28;20034;-75
2023/04/10 12:13:38;;;;;;;0.00;0.00;;;18.60;61.50;;;;;;5022995;28;20033;-75
2023/04/10 12:16:06;;;;;;;0.53;0.50;;;18.50;59.80;;;;;;5023358;28;20026;-75
2023/04/10 12:18:33;;;;;;;0.10;0.10;;;18.80;60.90;;;;;;5022770;28;20397;-75
2023/04/10 12:20:59;;;;;;;0.10;0.10;;;19.10;60.70;;;;;;5023416;28;20022;-75
2023/04/10 12:23:27;;;;;;;0.00;0.00;;;19.20;59.90;;;;;;5023230;28;20041;-74
2023/04/10 12:26:05;;;;;;;0.13;0.13;;;19.10;59.80;;;;;;5022334;28;20087;-75
2023/04/10 12:28:31;;;;;;;0.32;0.32;;;18.70;60.30;;;;;;5023936;28;20053;-74
2023/04/10 12:30:56;;;;;;;0.60;0.60;;;18.60;60.90;;;;;;5023958;28;20116;-74
2023/04/10 12:33:23;;;;;;;0.00;0.00;;;18.50;61.20;;;;;;5022929;28;20034;-75
2023/04/10 12:35:49;;;;;;;1.63;0.65;;;18.40;62.30;;;;;;5023259;28;20029;-74
2023/04/10 12:38:15;;;;;;;0.40;0.40;;;18.50;62.20;;;;;;5023293;28;20035;-75
2023/04/10 12:41:00;;;;;;;0.30;0.20;;;18.80;64.10;;;;;;5030669;28;20026;-74
2023/04/10 12:43:37;;;;;;;0.10;0.10;;;19.20;63.70;;;;;;5022706;28;20117;-74
2023/04/10 12:46:04;;;;;;;0.10;0.10;;;19.50;61.30;;;;;;5022954;28;20100;-75
2023/04/10 12:48:30;;;;;;;0.40;0.40;;;19.60;61.00;;;;;;5022427;28;20029;-74
2023/04/10 12:50:56;;;;;;;1.50;0.93;;;19.60;63.30;;;;;;5022963;28;20033;-75
2023/04/10 12:53:22;;;;;;;0.00;0.00;;;19.50;62.70;;;;;;5022738;28;20555;-75
2023/04/10 12:56:02;;;;;;;0.68;0.30;;;19.90;65.00;;;;;;5022702;28;20040;-74